sensor_id;sensor_type;location;lat;lon;timestamp;temperature;humidity
19248;DHT22;9758;48.640;8.148;2023-07-31T00:00:44;20.00;49.80
19248;DHT22;9758;48.640;8.148;2023-07-31T00:03:14;20.00;49.90
19248;DHT22;9758;48.640;8.148;2023-07-31T00:05:41;20.00;49.80
19248;DHT22;9758;48.640;8.148;2023-07-31T00:08:07;19.90;49.90
19248;DHT22;9758;48.640;8.148;2023-07-31T00:10:34;19.90;49.80
19248;DHT22;9758;48.640;8.148;2023-07-31T00:13:01;19.90;49.80
19248;DHT22;9758;48.640;8.148;2023-07-31T00:15:28;19.80;49.70
19248;DHT22;9758;48.640;8.148;2023-07-31T00:17:55;19.80;49.90
19248;DHT22;9758;48.640;8.148;2023-07-31T00:20:23;19.80;49.90
19248;DHT22;9758;48.640;8.148;2023-07-31T00:22:50;19.80;49.90
19248;DHT22;9758;48.640;8.148;2023-07-31T00:25:16;19.80;49.90
19248;DHT22;9758;48.640;8.148;2023-07-31T00:27:43;19.80;49.90
19248;DHT22;9758;48.640;8.148;2023-07-31T00:30:11;19.80;49.90
19248;DHT22;9758;48.640;8.148;2023-07-31T00:32:38;19.80;50.00
19248;DHT22;9758;48.640;8.148;2023-07-31T00:35:05;19.70;49.90
19248;DHT22;9758;48.640;8.148;2023-07-31T00:37:33;19.70;49.90
19248;DHT22;9758;48.640;8.148;2023-07-31T00:40:00;19.70;49.90
19248;DHT22;9758;48.640;8.148;2023-07-31T00:42:29;19.70;50.00
19248;DHT22;9758;48.640;8.148;2023-07-31T00:44:55;19.70;49.90
19248;DHT22;9758;48.640;8.148;2023-07-31T00:47:22;19.70;50.10
19248;DHT22;9758;48.640;8.148;2023-07-31T00:49:49;19.60;50.10
19248;DHT22;9758;48.640;8.148;2023-07-31T00:52:16;19.60;50.10
19248;DHT22;9758;48.640;8.148;2023-07-31T00:54:45;19.60;50.10
19248;DHT22;9758;48.640;8.148;2023-07-31T00:57:12;19.60;50.10
19248;DHT22;9758;48.640;8.148;2023-07-31T00:59:39;19.70;50.10
19248;DHT22;9758;48.640;8.148;2023-07-31T01:02:05;19.70;50.10
19248;DHT22;9758;48.640;8.148;2023-07-31T01:04:32;19.60;50.00
19248;DHT22;9758;48.640;8.148;2023-07-31T01:07:02;19.60;50.10
19248;DHT22;9758;48.640;8.148;2023-07-31T01:09:38;19.60;50.10
19248;DHT22;9758;48.640;8.148;2023-07-31T01:12:09;19.60;50.10
19248;DHT22;9758;48.640;8.148;2023-07-31T01:14:39;19.60;50.10
19248;DHT22;9758;48.640;8.148;2023-07-31T01:17:06;19.60;50.10
19248;DHT22;9758;48.640;8.148;2023-07-31T01:19:32;19.60;50.10
19248;DHT22;9758;48.640;8.148;2023-07-31T01:22:16;19.60;50.20
19248;DHT22;9758;48.640;8.148;2023-07-31T01:24:56;19.50;50.10
19248;DHT22;9758;48.640;8.148;2023-07-31T01:27:30;19.60;50.20
19248;DHT22;9758;48.640;8.148;2023-07-31T01:30:05;19.50;50.10
19248;DHT22;9758;48.640;8.148;2023-07-31T01:32:36;19.50;50.10
19248;DHT22;9758;48.640;8.148;2023-07-31T01:35:06;19.50;50.10
19248;DHT22;9758;48.640;8.148;2023-07-31T01:37:33;19.50;50.10
19248;DHT22;9758;48.640;8.148;2023-07-31T01:40:00;19.50;50.10
19248;DHT22;9758;48.640;8.148;2023-07-31T01:42:28;19.50;50.10
19248;DHT22;9758;48.640;8.148;2023-07-31T01:44:55;19.50;50.10
19248;DHT22;9758;48.640;8.148;2023-07-31T01:47:22;19.50;50.20
19248;DHT22;9758;48.640;8.148;2023-07-31T01:49:49;19.50;50.20
19248;DHT22;9758;48.640;8.148;2023-07-31T01:52:15;19.50;50.20
19248;DHT22;9758;48.640;8.148;2023-07-31T01:54:42;19.50;50.10
19248;DHT22;9758;48.640;8.148;2023-07-31T01:57:09;19.50;50.10
19248;DHT22;9758;48.640;8.148;2023-07-31T01:59:37;19.50;50.00
19248;DHT22;9758;48.640;8.148;2023-07-31T02:02:04;19.50;50.10
19248;DHT22;9758;48.640;8.148;2023-07-31T02:04:31;19.50;50.10
19248;DHT22;9758;48.640;8.148;2023-07-31T02:06:58;19.50;50.10
19248;DHT22;9758;48.640;8.148;2023-07-31T02:09:25;19.50;50.10
19248;DHT22;9758;48.640;8.148;2023-07-31T02:11:51;19.50;50.20
19248;DHT22;9758;48.640;8.148;2023-07-31T02:14:18;19.50;50.20
19248;DHT22;9758;48.640;8.148;2023-07-31T02:16:46;19.50;50.10
19248;DHT22;9758;48.640;8.148;2023-07-31T02:19:13;19.50;50.10
19248;DHT22;9758;48.640;8.148;2023-07-31T02:21:39;19.50;50.10
19248;DHT22;9758;48.640;8.148;2023-07-31T02:24:06;19.50;50.20
19248;DHT22;9758;48.640;8.148;2023-07-31T02:26:33;19.40;50.10
19248;DHT22;9758;48.640;8.148;2023-07-31T02:29:00;19.50;50.30
19248;DHT22;9758;48.640;8.148;2023-07-31T02:31:26;19.50;50.30
19248;DHT22;9758;48.640;8.148;2023-07-31T02:33:55;19.40;50.20
19248;DHT22;9758;48.640;8.148;2023-07-31T02:36:21;19.40;50.20
19248;DHT22;9758;48.640;8.148;2023-07-31T02:38:48;19.50;50.30
19248;DHT22;9758;48.640;8.148;2023-07-31T02:41:15;19.50;50.30
19248;DHT22;9758;48.640;8.148;2023-07-31T02:43:41;19.40;50.20
19248;DHT22;9758;48.640;8.148;2023-07-31T02:46:08;19.40;50.30
19248;DHT22;9758;48.640;8.148;2023-07-31T02:48:35;19.50;50.20
19248;DHT22;9758;48.640;8.148;2023-07-31T02:51:03;19.50;50.20
19248;DHT22;9758;48.640;8.148;2023-07-31T02:53:30;19.50;50.20
19248;DHT22;9758;48.640;8.148;2023-07-31T02:55:56;19.50;50.20
19248;DHT22;9758;48.640;8.148;2023-07-31T02:58:23;19.50;50.30
19248;DHT22;9758;48.640;8.148;2023-07-31T03:00:50;19.50;50.20
19248;DHT22;9758;48.640;8.148;2023-07-31T03:03:16;19.50;50.20
19248;DHT22;9758;48.640;8.148;2023-07-31T03:05:43;19.60;50.30
19248;DHT22;9758;48.640;8.148;2023-07-31T03:08:11;19.60;50.80
19248;DHT22;9758;48.640;8.148;2023-07-31T03:10:38;19.60;50.30
19248;DHT22;9758;48.640;8.148;2023-07-31T03:13:05;19.60;50.20
19248;DHT22;9758;48.640;8.148;2023-07-31T03:15:31;19.60;50.20
19248;DHT22;9758;48.640;8.148;2023-07-31T03:17:58;19.70;50.20
19248;DHT22;9758;48.640;8.148;2023-07-31T03:20:25;19.60;50.10
19248;DHT22;9758;48.640;8.148;2023-07-31T03:22:51;19.70;50.10
19248;DHT22;9758;48.640;8.148;2023-07-31T03:25:19;19.70;50.10
19248;DHT22;9758;48.640;8.148;2023-07-31T03:27:46;19.60;50.00
19248;DHT22;9758;48.640;8.148;2023-07-31T03:30:13;19.60;50.00
19248;DHT22;9758;48.640;8.148;2023-07-31T03:32:40;19.60;50.10
19248;DHT22;9758;48.640;8.148;2023-07-31T03:35:07;19.60;50.10
19248;DHT22;9758;48.640;8.148;2023-07-31T03:37:33;19.60;50.20
19248;DHT22;9758;48.640;8.148;2023-07-31T03:40:00;19.60;50.20
19248;DHT22;9758;48.640;8.148;2023-07-31T03:42:29;19.50;50.10
19248;DHT22;9758;48.640;8.148;2023-07-31T03:44:56;19.60;50.20
19248;DHT22;9758;48.640;8.148;2023-07-31T03:47:22;19.50;50.10
19248;DHT22;9758;48.640;8.148;2023-07-31T03:49:49;19.50;50.20
19248;DHT22;9758;48.640;8.148;2023-07-31T03:52:16;19.40;50.20
19248;DHT22;9758;48.640;8.148;2023-07-31T03:54:43;19.40;50.20
19248;DHT22;9758;48.640;8.148;2023-07-31T03:57:10;19.40;50.20
19248;DHT22;9758;48.640;8.148;2023-07-31T03:59:38;19.40;50.20
19248;DHT22;9758;48.640;8.148;2023-07-31T04:02:05;19.50;50.30
19248;DHT22;9758;48.640;8.148;2023-07-31T04:04:32;19.50;50.30
19248;DHT22;9758;48.640;8.148;2023-07-31T04:06:59;19.50;50.40
19248;DHT22;9758;48.640;8.148;2023-07-31T04:09:25;19.50;50.30
19248;DHT22;9758;48.640;8.148;2023-07-31T04:11:52;19.60;50.30
19248;DHT22;9758;48.640;8.148;2023-07-31T04:14:19;19.50;50.20
19248;DHT22;9758;48.640;8.148;2023-07-31T04:16:47;19.60;50.30
19248;DHT22;9758;48.640;8.148;2023-07-31T04:19:14;19.60;50.20
19248;DHT22;9758;48.640;8.148;2023-07-31T04:21:42;19.60;50.20
19248;DHT22;9758;48.640;8.148;2023-07-31T04:24:08;19.60;50.10
19248;DHT22;9758;48.640;8.148;2023-07-31T04:26:35;19.60;50.10
19248;DHT22;9758;48.640;8.148;2023-07-31T04:29:02;19.60;50.10
19248;DHT22;9758;48.640;8.148;2023-07-31T04:31:28;19.70;50.20
19248;DHT22;9758;48.640;8.148;2023-07-31T04:33:57;19.70;50.20
19248;DHT22;9758;48.640;8.148;2023-07-31T04:36:23;19.80;50.20
19248;DHT22;9758;48.640;8.148;2023-07-31T04:38:50;19.80;50.20
19248;DHT22;9758;48.640;8.148;2023-07-31T04:41:17;19.80;50.10
19248;DHT22;9758;48.640;8.148;2023-07-31T04:43:43;19.90;50.10
19248;DHT22;9758;48.640;8.148;2023-07-31T04:46:10;19.90;50.10
19248;DHT22;9758;48.640;8.148;2023-07-31T04:48:37;19.90;49.90
19248;DHT22;9758;48.640;8.148;2023-07-31T04:51:05;19.90;50.00
19248;DHT22;9758;48.640;8.148;2023-07-31T04:53:32;20.00;50.10
19248;DHT22;9758;48.640;8.148;2023-07-31T04:55:59;20.00;50.00
19248;DHT22;9758;48.640;8.148;2023-07-31T04:58:25;20.10;50.00
19248;DHT22;9758;48.640;8.148;2023-07-31T05:00:52;20.10;49.90
19248;DHT22;9758;48.640;8.148;2023-07-31T05:03:19;20.10;50.00
19248;DHT22;9758;48.640;8.148;2023-07-31T05:05:55;20.10;50.00
19248;DHT22;9758;48.640;8.148;2023-07-31T05:08:23;20.20;50.00
19248;DHT22;9758;48.640;8.148;2023-07-31T05:10:50;20.30;49.90
19248;DHT22;9758;48.640;8.148;2023-07-31T05:13:16;20.20;49.90
19248;DHT22;9758;48.640;8.148;2023-07-31T05:15:43;20.20;49.80
19248;DHT22;9758;48.640;8.148;2023-07-31T05:18:10;20.30;49.90
19248;DHT22;9758;48.640;8.148;2023-07-31T05:20:37;20.30;49.80
19248;DHT22;9758;48.640;8.148;2023-07-31T05:23:03;20.40;49.70
19248;DHT22;9758;48.640;8.148;2023-07-31T05:25:31;20.40;49.70
19248;DHT22;9758;48.640;8.148;2023-07-31T05:27:58;20.40;49.80
19248;DHT22;9758;48.640;8.148;2023-07-31T05:30:25;20.40;49.70
19248;DHT22;9758;48.640;8.148;2023-07-31T05:32:52;20.30;49.70
19248;DHT22;9758;48.640;8.148;2023-07-31T05:35:18;20.40;49.80
19248;DHT22;9758;48.640;8.148;2023-07-31T05:37:45;20.40;49.70
19248;DHT22;9758;48.640;8.148;2023-07-31T05:40:12;20.40;49.70
19248;DHT22;9758;48.640;8.148;2023-07-31T05:42:40;20.40;49.70
19248;DHT22;9758;48.640;8.148;2023-07-31T05:45:07;20.50;49.70
19248;DHT22;9758;48.640;8.148;2023-07-31T05:47:34;20.50;49.70
19248;DHT22;9758;48.640;8.148;2023-07-31T05:50:01;20.50;49.70
19248;DHT22;9758;48.640;8.148;2023-07-31T05:52:28;20.50;49.60
19248;DHT22;9758;48.640;8.148;2023-07-31T05:54:55;20.50;49.60
19248;DHT22;9758;48.640;8.148;2023-07-31T05:57:22;20.50;49.60
19248;DHT22;9758;48.640;8.148;2023-07-31T05:59:50;20.60;49.60
19248;DHT22;9758;48.640;8.148;2023-07-31T06:02:18;20.70;49.70
19248;DHT22;9758;48.640;8.148;2023-07-31T06:04:45;20.70;49.60
19248;DHT22;9758;48.640;8.148;2023-07-31T06:07:12;20.80;49.60
19248;DHT22;9758;48.640;8.148;2023-07-31T06:09:39;20.80;49.60
19248;DHT22;9758;48.640;8.148;2023-07-31T06:12:06;20.80;49.40
19248;DHT22;9758;48.640;8.148;2023-07-31T06:14:45;20.90;49.40
19248;DHT22;9758;48.640;8.148;2023-07-31T06:17:13;20.90;49.30
19248;DHT22;9758;48.640;8.148;2023-07-31T06:19:39;20.90;49.40
19248;DHT22;9758;48.640;8.148;2023-07-31T06:22:06;21.00;49.30
19248;DHT22;9758;48.640;8.148;2023-07-31T06:24:33;21.00;49.30
19248;DHT22;9758;48.640;8.148;2023-07-31T06:27:00;21.00;49.90
19248;DHT22;9758;48.640;8.148;2023-07-31T06:29:29;21.00;49.20
19248;DHT22;9758;48.640;8.148;2023-07-31T06:31:56;21.00;49.20
19248;DHT22;9758;48.640;8.148;2023-07-31T06:34:24;21.10;49.20
19248;DHT22;9758;48.640;8.148;2023-07-31T06:36:51;21.10;49.20
19248;DHT22;9758;48.640;8.148;2023-07-31T06:39:17;21.10;49.10
19248;DHT22;9758;48.640;8.148;2023-07-31T06:41:45;21.10;49.10
19248;DHT22;9758;48.640;8.148;2023-07-31T06:44:12;21.20;49.10
19248;DHT22;9758;48.640;8.148;2023-07-31T06:46:39;21.20;49.10
19248;DHT22;9758;48.640;8.148;2023-07-31T06:49:05;21.20;49.10
19248;DHT22;9758;48.640;8.148;2023-07-31T06:51:33;21.20;49.00
19248;DHT22;9758;48.640;8.148;2023-07-31T06:54:01;21.30;49.10
19248;DHT22;9758;48.640;8.148;2023-07-31T06:56:28;21.30;49.00
19248;DHT22;9758;48.640;8.148;2023-07-31T06:58:55;21.40;49.00
19248;DHT22;9758;48.640;8.148;2023-07-31T07:01:22;21.50;49.00
19248;DHT22;9758;48.640;8.148;2023-07-31T07:03:48;21.50;49.00
19248;DHT22;9758;48.640;8.148;2023-07-31T07:06:16;21.60;48.90
19248;DHT22;9758;48.640;8.148;2023-07-31T07:08:44;21.60;48.80
19248;DHT22;9758;48.640;8.148;2023-07-31T07:11:11;21.60;48.80
19248;DHT22;9758;48.640;8.148;2023-07-31T07:13:38;21.70;48.80
19248;DHT22;9758;48.640;8.148;2023-07-31T07:16:05;21.70;48.70
19248;DHT22;9758;48.640;8.148;2023-07-31T07:18:31;21.80;48.60
19248;DHT22;9758;48.640;8.148;2023-07-31T07:20:58;21.80;48.60
19248;DHT22;9758;48.640;8.148;2023-07-31T07:23:27;21.80;48.70
19248;DHT22;9758;48.640;8.148;2023-07-31T07:25:56;21.90;48.80
19248;DHT22;9758;48.640;8.148;2023-07-31T07:28:22;22.00;48.80
19248;DHT22;9758;48.640;8.148;2023-07-31T07:30:51;22.00;48.70
19248;DHT22;9758;48.640;8.148;2023-07-31T07:33:18;22.10;48.70
19248;DHT22;9758;48.640;8.148;2023-07-31T07:35:45;22.30;48.60
19248;DHT22;9758;48.640;8.148;2023-07-31T07:38:13;22.40;48.60
19248;DHT22;9758;48.640;8.148;2023-07-31T07:40:40;22.50;48.40
19248;DHT22;9758;48.640;8.148;2023-07-31T07:43:08;22.50;48.20
19248;DHT22;9758;48.640;8.148;2023-07-31T07:45:35;22.60;48.20
19248;DHT22;9758;48.640;8.148;2023-07-31T07:48:02;22.60;48.10
19248;DHT22;9758;48.640;8.148;2023-07-31T07:50:29;22.60;47.90
19248;DHT22;9758;48.640;8.148;2023-07-31T07:52:55;22.60;48.10
19248;DHT22;9758;48.640;8.148;2023-07-31T07:55:22;22.60;48.00
19248;DHT22;9758;48.640;8.148;2023-07-31T07:57:49;22.50;48.60
19248;DHT22;9758;48.640;8.148;2023-07-31T08:00:18;22.50;48.00
19248;DHT22;9758;48.640;8.148;2023-07-31T08:02:44;22.50;48.00
19248;DHT22;9758;48.640;8.148;2023-07-31T08:05:11;22.50;48.00
19248;DHT22;9758;48.640;8.148;2023-07-31T08:07:40;22.60;48.20
19248;DHT22;9758;48.640;8.148;2023-07-31T08:10:07;22.70;48.20
19248;DHT22;9758;48.640;8.148;2023-07-31T08:12:34;22.80;48.10
19248;DHT22;9758;48.640;8.148;2023-07-31T08:15:01;22.80;48.00
19248;DHT22;9758;48.640;8.148;2023-07-31T08:17:29;22.80;48.00
19248;DHT22;9758;48.640;8.148;2023-07-31T08:19:55;22.80;47.90
19248;DHT22;9758;48.640;8.148;2023-07-31T08:22:24;22.90;47.80
19248;DHT22;9758;48.640;8.148;2023-07-31T08:24:51;22.90;47.80
19248;DHT22;9758;48.640;8.148;2023-07-31T08:27:18;22.90;47.90
19248;DHT22;9758;48.640;8.148;2023-07-31T08:29:44;22.90;47.90
19248;DHT22;9758;48.640;8.148;2023-07-31T08:32:11;22.90;47.90
19248;DHT22;9758;48.640;8.148;2023-07-31T08:34:39;22.90;48.00
19248;DHT22;9758;48.640;8.148;2023-07-31T08:37:07;23.00;47.90
19248;DHT22;9758;48.640;8.148;2023-07-31T08:39:33;23.00;48.00
19248;DHT22;9758;48.640;8.148;2023-07-31T08:42:00;23.10;48.00
19248;DHT22;9758;48.640;8.148;2023-07-31T08:44:27;23.20;47.80
19248;DHT22;9758;48.640;8.148;2023-07-31T08:46:56;23.20;47.90
19248;DHT22;9758;48.640;8.148;2023-07-31T08:49:23;23.30;47.70
19248;DHT22;9758;48.640;8.148;2023-07-31T08:51:52;23.40;47.80
19248;DHT22;9758;48.640;8.148;2023-07-31T08:54:20;23.50;47.70
19248;DHT22;9758;48.640;8.148;2023-07-31T08:56:47;23.60;47.70
19248;DHT22;9758;48.640;8.148;2023-07-31T08:59:15;23.70;47.60
19248;DHT22;9758;48.640;8.148;2023-07-31T09:01:46;23.80;47.60
19248;DHT22;9758;48.640;8.148;2023-07-31T09:04:15;23.90;47.60
19248;DHT22;9758;48.640;8.148;2023-07-31T09:06:42;24.00;47.30
19248;DHT22;9758;48.640;8.148;2023-07-31T09:09:12;24.00;47.30
19248;DHT22;9758;48.640;8.148;2023-07-31T09:11:39;24.10;47.20
19248;DHT22;9758;48.640;8.148;2023-07-31T09:14:08;24.10;46.80
19248;DHT22;9758;48.640;8.148;2023-07-31T09:16:35;24.10;47.10
19248;DHT22;9758;48.640;8.148;2023-07-31T09:19:02;24.20;47.20
19248;DHT22;9758;48.640;8.148;2023-07-31T09:21:30;24.20;47.20
19248;DHT22;9758;48.640;8.148;2023-07-31T09:23:57;24.30;46.90
19248;DHT22;9758;48.640;8.148;2023-07-31T09:26:33;24.30;46.80
19248;DHT22;9758;48.640;8.148;2023-07-31T09:29:01;24.30;46.60
19248;DHT22;9758;48.640;8.148;2023-07-31T09:31:38;24.20;46.90
19248;DHT22;9758;48.640;8.148;2023-07-31T09:34:05;24.30;47.10
19248;DHT22;9758;48.640;8.148;2023-07-31T09:36:32;24.40;47.00
19248;DHT22;9758;48.640;8.148;2023-07-31T09:39:02;24.50;47.10
19248;DHT22;9758;48.640;8.148;2023-07-31T09:41:29;24.60;47.70
19248;DHT22;9758;48.640;8.148;2023-07-31T09:43:57;24.80;46.80
19248;DHT22;9758;48.640;8.148;2023-07-31T09:46:27;24.90;46.60
19248;DHT22;9758;48.640;8.148;2023-07-31T09:49:04;24.90;46.30
19248;DHT22;9758;48.640;8.148;2023-07-31T09:51:31;24.90;46.30
19248;DHT22;9758;48.640;8.148;2023-07-31T09:54:04;24.90;46.30
19248;DHT22;9758;48.640;8.148;2023-07-31T09:56:31;24.90;46.40
19248;DHT22;9758;48.640;8.148;2023-07-31T09:59:00;24.90;46.50
19248;DHT22;9758;48.640;8.148;2023-07-31T10:01:28;25.00;46.50
19248;DHT22;9758;48.640;8.148;2023-07-31T10:03:55;25.10;46.00
19248;DHT22;9758;48.640;8.148;2023-07-31T10:06:24;25.10;46.10
19248;DHT22;9758;48.640;8.148;2023-07-31T10:08:52;25.00;45.90
19248;DHT22;9758;48.640;8.148;2023-07-31T10:11:22;25.00;46.20
19248;DHT22;9758;48.640;8.148;2023-07-31T10:13:50;25.00;46.20
19248;DHT22;9758;48.640;8.148;2023-07-31T10:16:18;25.00;46.30
19248;DHT22;9758;48.640;8.148;2023-07-31T10:18:46;25.00;46.30
19248;DHT22;9758;48.640;8.148;2023-07-31T10:21:14;25.10;46.20
19248;DHT22;9758;48.640;8.148;2023-07-31T10:23:42;25.20;45.80
19248;DHT22;9758;48.640;8.148;2023-07-31T10:26:10;25.20;45.80
19248;DHT22;9758;48.640;8.148;2023-07-31T10:28:38;25.10;45.60
19248;DHT22;9758;48.640;8.148;2023-07-31T10:31:06;24.90;45.70
19248;DHT22;9758;48.640;8.148;2023-07-31T10:33:34;24.90;45.90
19248;DHT22;9758;48.640;8.148;2023-07-31T10:36:14;24.80;46.00
19248;DHT22;9758;48.640;8.148;2023-07-31T10:38:42;24.80;46.20
19248;DHT22;9758;48.640;8.148;2023-07-31T10:41:09;24.80;46.20
19248;DHT22;9758;48.640;8.148;2023-07-31T10:43:36;24.90;46.10
19248;DHT22;9758;48.640;8.148;2023-07-31T10:46:06;25.00;46.30
19248;DHT22;9758;48.640;8.148;2023-07-31T10:48:36;25.10;46.30
19248;DHT22;9758;48.640;8.148;2023-07-31T10:51:07;25.30;46.20
19248;DHT22;9758;48.640;8.148;2023-07-31T10:53:35;25.40;45.90
19248;DHT22;9758;48.640;8.148;2023-07-31T10:56:03;25.40;45.80
19248;DHT22;9758;48.640;8.148;2023-07-31T10:58:30;25.40;45.70
19248;DHT22;9758;48.640;8.148;2023-07-31T11:01:00;25.40;45.60
19248;DHT22;9758;48.640;8.148;2023-07-31T11:03:41;25.30;45.60
19248;DHT22;9758;48.640;8.148;2023-07-31T11:06:08;25.20;45.70
19248;DHT22;9758;48.640;8.148;2023-07-31T11:08:40;25.20;45.90
19248;DHT22;9758;48.640;8.148;2023-07-31T11:11:09;25.20;45.90
19248;DHT22;9758;48.640;8.148;2023-07-31T11:13:43;25.20;46.00
19248;DHT22;9758;48.640;8.148;2023-07-31T11:16:12;25.20;46.00
19248;DHT22;9758;48.640;8.148;2023-07-31T11:18:41;25.20;45.90
19248;DHT22;9758;48.640;8.148;2023-07-31T11:21:11;25.20;45.90
19248;DHT22;9758;48.640;8.148;2023-07-31T11:23:38;25.10;45.80
19248;DHT22;9758;48.640;8.148;2023-07-31T11:26:06;25.10;46.00
19248;DHT22;9758;48.640;8.148;2023-07-31T11:28:33;25.10;46.10
19248;DHT22;9758;48.640;8.148;2023-07-31T11:31:01;25.10;46.10
19248;DHT22;9758;48.640;8.148;2023-07-31T11:33:28;25.20;46.00
19248;DHT22;9758;48.640;8.148;2023-07-31T11:35:56;25.20;45.90
19248;DHT22;9758;48.640;8.148;2023-07-31T11:38:24;25.20;45.80
19248;DHT22;9758;48.640;8.148;2023-07-31T11:40:51;25.20;45.90
19248;DHT22;9758;48.640;8.148;2023-07-31T11:43:19;25.20;46.10
19248;DHT22;9758;48.640;8.148;2023-07-31T11:45:59;25.30;46.20
19248;DHT22;9758;48.640;8.148;2023-07-31T11:48:29;25.30;46.00
19248;DHT22;9758;48.640;8.148;2023-07-31T11:50:59;25.40;46.10
19248;DHT22;9758;48.640;8.148;2023-07-31T11:53:28;25.50;46.10
19248;DHT22;9758;48.640;8.148;2023-07-31T11:55:58;25.50;45.90
19248;DHT22;9758;48.640;8.148;2023-07-31T11:58:26;25.60;45.70
19248;DHT22;9758;48.640;8.148;2023-07-31T12:00:53;25.60;45.80
19248;DHT22;9758;48.640;8.148;2023-07-31T12:03:20;25.60;45.50
19248;DHT22;9758;48.640;8.148;2023-07-31T12:05:47;25.50;45.50
19248;DHT22;9758;48.640;8.148;2023-07-31T12:08:15;25.50;45.60
19248;DHT22;9758;48.640;8.148;2023-07-31T12:10:42;25.50;45.60
19248;DHT22;9758;48.640;8.148;2023-07-31T12:13:12;25.50;45.70
19248;DHT22;9758;48.640;8.148;2023-07-31T12:15:46;25.50;45.60
19248;DHT22;9758;48.640;8.148;2023-07-31T12:18:14;25.50;45.70
19248;DHT22;9758;48.640;8.148;2023-07-31T12:20:43;25.60;45.60
19248;DHT22;9758;48.640;8.148;2023-07-31T12:23:16;25.70;45.80
19248;DHT22;9758;48.640;8.148;2023-07-31T12:25:43;25.80;45.60
19248;DHT22;9758;48.640;8.148;2023-07-31T12:28:10;25.80;45.60
19248;DHT22;9758;48.640;8.148;2023-07-31T12:30:39;25.90;45.50
19248;DHT22;9758;48.640;8.148;2023-07-31T12:33:07;26.00;45.50
19248;DHT22;9758;48.640;8.148;2023-07-31T12:35:37;26.10;45.40
19248;DHT22;9758;48.640;8.148;2023-07-31T12:38:04;26.10;45.20
19248;DHT22;9758;48.640;8.148;2023-07-31T12:40:33;26.10;45.10
19248;DHT22;9758;48.640;8.148;2023-07-31T12:43:01;26.10;45.20
19248;DHT22;9758;48.640;8.148;2023-07-31T12:45:29;26.20;45.20
19248;DHT22;9758;48.640;8.148;2023-07-31T12:47:56;26.20;45.20
19248;DHT22;9758;48.640;8.148;2023-07-31T12:50:23;26.30;45.10
19248;DHT22;9758;48.640;8.148;2023-07-31T12:52:51;26.30;45.10
19248;DHT22;9758;48.640;8.148;2023-07-31T12:55:17;26.30;45.00
19248;DHT22;9758;48.640;8.148;2023-07-31T12:57:46;26.30;45.00
19248;DHT22;9758;48.640;8.148;2023-07-31T13:00:13;26.30;44.80
19248;DHT22;9758;48.640;8.148;2023-07-31T13:02:40;26.20;44.60
19248;DHT22;9758;48.640;8.148;2023-07-31T13:05:07;26.10;44.70
19248;DHT22;9758;48.640;8.148;2023-07-31T13:07:34;25.90;44.70
19248;DHT22;9758;48.640;8.148;2023-07-31T13:10:01;25.80;44.70
19248;DHT22;9758;48.640;8.148;2023-07-31T13:12:27;25.80;44.90
19248;DHT22;9758;48.640;8.148;2023-07-31T13:14:55;25.70;45.10
19248;DHT22;9758;48.640;8.148;2023-07-31T13:17:22;25.70;45.20
19248;DHT22;9758;48.640;8.148;2023-07-31T13:19:49;25.60;45.10
19248;DHT22;9758;48.640;8.148;2023-07-31T13:22:16;25.60;45.00
19248;DHT22;9758;48.640;8.148;2023-07-31T13:24:42;25.50;45.20
19248;DHT22;9758;48.640;8.148;2023-07-31T13:27:09;25.50;45.40
19248;DHT22;9758;48.640;8.148;2023-07-31T13:29:36;25.60;45.70
19248;DHT22;9758;48.640;8.148;2023-07-31T13:32:05;25.80;45.70
19248;DHT22;9758;48.640;8.148;2023-07-31T13:34:31;25.90;45.50
19248;DHT22;9758;48.640;8.148;2023-07-31T13:36:58;26.10;45.50
19248;DHT22;9758;48.640;8.148;2023-07-31T13:39:25;26.30;45.30
19248;DHT22;9758;48.640;8.148;2023-07-31T13:41:52;26.50;45.30
19248;DHT22;9758;48.640;8.148;2023-07-31T13:44:18;26.70;45.10
19248;DHT22;9758;48.640;8.148;2023-07-31T13:46:45;26.90;45.00
19248;DHT22;9758;48.640;8.148;2023-07-31T13:49:13;27.00;44.90
19248;DHT22;9758;48.640;8.148;2023-07-31T13:51:40;27.10;44.90
19248;DHT22;9758;48.640;8.148;2023-07-31T13:54:07;27.30;44.80
19248;DHT22;9758;48.640;8.148;2023-07-31T13:56:33;27.40;44.80
19248;DHT22;9758;48.640;8.148;2023-07-31T13:59:00;27.40;44.40
19248;DHT22;9758;48.640;8.148;2023-07-31T14:01:27;27.30;44.30
19248;DHT22;9758;48.640;8.148;2023-07-31T14:03:54;27.30;43.90
19248;DHT22;9758;48.640;8.148;2023-07-31T14:06:22;27.10;44.10
19248;DHT22;9758;48.640;8.148;2023-07-31T14:08:49;27.00;44.30
19248;DHT22;9758;48.640;8.148;2023-07-31T14:11:16;26.90;44.50
19248;DHT22;9758;48.640;8.148;2023-07-31T14:13:42;26.80;44.30
19248;DHT22;9758;48.640;8.148;2023-07-31T14:16:09;26.80;44.50
19248;DHT22;9758;48.640;8.148;2023-07-31T14:18:36;26.80;44.60
19248;DHT22;9758;48.640;8.148;2023-07-31T14:21:03;26.80;44.60
19248;DHT22;9758;48.640;8.148;2023-07-31T14:23:31;26.70;44.50
19248;DHT22;9758;48.640;8.148;2023-07-31T14:25:57;26.70;44.50
19248;DHT22;9758;48.640;8.148;2023-07-31T14:28:24;26.70;44.50
19248;DHT22;9758;48.640;8.148;2023-07-31T14:30:51;26.60;44.40
19248;DHT22;9758;48.640;8.148;2023-07-31T14:33:18;26.50;44.30
19248;DHT22;9758;48.640;8.148;2023-07-31T14:35:45;26.40;44.30
19248;DHT22;9758;48.640;8.148;2023-07-31T14:38:22;26.40;44.60
19248;DHT22;9758;48.640;8.148;2023-07-31T14:40:51;26.30;44.50
19248;DHT22;9758;48.640;8.148;2023-07-31T14:43:18;26.20;44.60
19248;DHT22;9758;48.640;8.148;2023-07-31T14:45:45;26.10;44.70
19248;DHT22;9758;48.640;8.148;2023-07-31T14:48:12;26.20;44.80
19248;DHT22;9758;48.640;8.148;2023-07-31T14:50:39;26.10;44.70
19248;DHT22;9758;48.640;8.148;2023-07-31T14:53:06;26.10;44.80
19248;DHT22;9758;48.640;8.148;2023-07-31T14:55:33;26.10;45.00
19248;DHT22;9758;48.640;8.148;2023-07-31T14:58:01;26.30;44.90
19248;DHT22;9758;48.640;8.148;2023-07-31T15:00:28;26.40;44.80
19248;DHT22;9758;48.640;8.148;2023-07-31T15:02:55;26.50;44.90
19248;DHT22;9758;48.640;8.148;2023-07-31T15:05:22;26.50;44.90
19248;DHT22;9758;48.640;8.148;2023-07-31T15:07:48;26.60;44.90
19248;DHT22;9758;48.640;8.148;2023-07-31T15:10:15;26.70;45.00
19248;DHT22;9758;48.640;8.148;2023-07-31T15:12:42;26.80;44.80
19248;DHT22;9758;48.640;8.148;2023-07-31T15:15:10;27.00;44.80
19248;DHT22;9758;48.640;8.148;2023-07-31T15:17:37;27.00;44.50
19248;DHT22;9758;48.640;8.148;2023-07-31T15:20:05;27.10;44.50
19248;DHT22;9758;48.640;8.148;2023-07-31T15:22:32;27.20;44.50
19248;DHT22;9758;48.640;8.148;2023-07-31T15:24:59;27.30;44.40
19248;DHT22;9758;48.640;8.148;2023-07-31T15:27:25;27.40;44.40
19248;DHT22;9758;48.640;8.148;2023-07-31T15:29:52;27.50;44.40
19248;DHT22;9758;48.640;8.148;2023-07-31T15:32:21;27.70;44.40
19248;DHT22;9758;48.640;8.148;2023-07-31T15:34:49;27.90;44.60
19248;DHT22;9758;48.640;8.148;2023-07-31T15:37:15;28.20;44.20
19248;DHT22;9758;48.640;8.148;2023-07-31T15:39:43;28.30;44.00
19248;DHT22;9758;48.640;8.148;2023-07-31T15:42:09;28.30;43.90
19248;DHT22;9758;48.640;8.148;2023-07-31T15:44:36;28.40;44.00
19248;DHT22;9758;48.640;8.148;2023-07-31T15:47:04;28.40;43.70